Tribhuvan International Airport
VNKT : now visible

Airfield :











YOU CAN JOIN US ON...

 
LOGIN :

Register | Disclaimer

   EN    FR    IT 

 









Legend :    VFR   Marginal VFR   IFR   Intensive IFR   Very Intensive IFR
Visi :
Ceiling :
>= 8 km
>= 3000ft
5 to 8 km
1000 to 3000 ft
1500m to 5 km
500 to 1000 ft
800 to 1500m
200 to 500 ft
< 800m
< 200 ft
Symbols :   Thunderstorms  Fog  Heavy snow  Heavy precipitations  Wind > 20 kt






- Airport Elevation : 4390 ft
- IATA code : KTM


VNKT - Tribhuvan International

CURRENT METAR :
  • 070700Z 14005KT 3500 BR FEW015 SCT030 BKN100 15/11 Q1018 NOSIG

EXPIRED METARs :
  • 070630Z 36007KT 3000 BR FEW015 SCT030 BKN100 14/11 Q1020 NOSIG
  • 070600Z 26003KT 3000 BR FEW015 SCT030 BKN100 14/11 Q1020 NOSIG
  • 070530Z VRB02KT 3000 BR FEW015 SCT030 BKN100 14/11 Q1020 NOSIG
  • 070500Z VRB02KT 2500 BR FEW015 SCT030 BKN100 13/11 Q1022 NOSIG
  • 070430Z 06003KT 3000 BR FEW015 SCT030 BKN100 13/11 Q1023 NOSIG
  • 070400Z 33003KT 3500 BR FEW015 SCT030 BKN100 13/11 Q1023 NOSIG
  • 070330Z VRB02KT 3500 BR FEW015 SCT030 BKN100 12/11 Q1023 NOSIG
  • 070300Z VRB02KT 3500 BR FEW015 SCT030 BKN100 12/10 Q1022 NOSIG
  • 070230Z VRB02KT 3500 BR FEW015 SCT030 BKN100 11/11 Q1022 NOSIG
  • 070200Z 04004KT 3500 BR FEW015 SCT030 BKN100 11/10 Q1022 NOSIG

TAF TAF VNKT
Valid from the 07 at 06:00 until the 08 at 06:00 UTC


070500Z 0706/0806 VRB02KT 3500 BR FEW015 BKN100
BECMG 0707/0709 22005KT 5000 BR FEW015 BKN100
BECMG 0712/0714 10003KT 6000 FEW015 SCT100
BECMG 0800/0802 00000KT 5000 BR FEW015
BECMG 0803/0804 10003KT 6000 FEW020
VNSM FIR / Asia



MET'MAP, your aeronautical weather chart ! - Copyright ORBIFLY December 2007 - Disclaimer

ORBIFLY MET'MAP TEAM :

Programming & Development : Alexandra Zaïnal
Original concept : Baudouin d'Aumeries
Technical & hardware support : Manuel Goepfert
Assistance : Marc-Olivier Méhu




SOURCES & CREDITS :

   NOAA       Earth
Advisory